sensor_id;sensor_type;location;lat;lon;timestamp;P1;durP1;ratioP1;P2;durP2;ratioP2
20283;SDS011;10301;50.832;4.080;2023-03-11T00:00:42;7.27;;;3.10;;
20283;SDS011;10301;50.832;4.080;2023-03-11T00:03:10;8.53;;;3.20;;
20283;SDS011;10301;50.832;4.080;2023-03-11T00:05:38;8.67;;;3.23;;
20283;SDS011;10301;50.832;4.080;2023-03-11T00:08:05;16.30;;;3.27;;
20283;SDS011;10301;50.832;4.080;2023-03-11T00:10:35;11.07;;;3.87;;
20283;SDS011;10301;50.832;4.080;2023-03-11T00:13:03;13.97;;;4.10;;
20283;SDS011;10301;50.832;4.080;2023-03-11T00:15:29;8.80;;;3.53;;
20283;SDS011;10301;50.832;4.080;2023-03-11T00:17:56;10.67;;;3.43;;
20283;SDS011;10301;50.832;4.080;2023-03-11T00:20:23;10.47;;;3.70;;
20283;SDS011;10301;50.832;4.080;2023-03-11T00:22:54;16.13;;;5.30;;
20283;SDS011;10301;50.832;4.080;2023-03-11T00:25:21;9.10;;;4.07;;
20283;SDS011;10301;50.832;4.080;2023-03-11T00:27:48;10.10;;;3.90;;
20283;SDS011;10301;50.832;4.080;2023-03-11T00:30:14;8.70;;;3.63;;
20283;SDS011;10301;50.832;4.080;2023-03-11T00:32:41;11.87;;;3.83;;
20283;SDS011;10301;50.832;4.080;2023-03-11T00:35:09;9.93;;;3.43;;
20283;SDS011;10301;50.832;4.080;2023-03-11T00:37:40;5.97;;;3.17;;
20283;SDS011;10301;50.832;4.080;2023-03-11T00:40:08;11.23;;;3.70;;
20283;SDS011;10301;50.832;4.080;2023-03-11T00:42:37;9.80;;;3.83;;
20283;SDS011;10301;50.832;4.080;2023-03-11T00:45:03;8.83;;;3.50;;
20283;SDS011;10301;50.832;4.080;2023-03-11T00:47:29;9.07;;;3.40;;
20283;SDS011;10301;50.832;4.080;2023-03-11T00:49:55;10.93;;;3.63;;
20283;SDS011;10301;50.832;4.080;2023-03-11T00:52:20;15.37;;;5.13;;
20283;SDS011;10301;50.832;4.080;2023-03-11T00:54:46;10.27;;;3.73;;
20283;SDS011;10301;50.832;4.080;2023-03-11T00:57:12;13.53;;;4.27;;
20283;SDS011;10301;50.832;4.080;2023-03-11T00:59:37;6.97;;;3.53;;
20283;SDS011;10301;50.832;4.080;2023-03-11T01:02:03;12.90;;;4.30;;
20283;SDS011;10301;50.832;4.080;2023-03-11T01:04:29;17.03;;;4.33;;
20283;SDS011;10301;50.832;4.080;2023-03-11T01:06:54;11.10;;;3.90;;
20283;SDS011;10301;50.832;4.080;2023-03-11T01:09:20;11.40;;;5.27;;
20283;SDS011;10301;50.832;4.080;2023-03-11T01:11:49;16.37;;;7.30;;
20283;SDS011;10301;50.832;4.080;2023-03-11T01:14:16;19.93;;;10.13;;
20283;SDS011;10301;50.832;4.080;2023-03-11T01:16:42;13.47;;;7.20;;
20283;SDS011;10301;50.832;4.080;2023-03-11T01:19:07;14.37;;;7.40;;
20283;SDS011;10301;50.832;4.080;2023-03-11T01:21:33;19.57;;;6.63;;
20283;SDS011;10301;50.832;4.080;2023-03-11T01:23:59;19.07;;;5.43;;
20283;SDS011;10301;50.832;4.080;2023-03-11T01:26:24;14.30;;;5.50;;
20283;SDS011;10301;50.832;4.080;2023-03-11T01:28:50;11.90;;;5.40;;
20283;SDS011;10301;50.832;4.080;2023-03-11T01:31:15;15.13;;;5.00;;
20283;SDS011;10301;50.832;4.080;2023-03-11T01:33:41;10.30;;;4.40;;
20283;SDS011;10301;50.832;4.080;2023-03-11T01:36:07;10.97;;;4.30;;
20283;SDS011;10301;50.832;4.080;2023-03-11T01:38:33;12.53;;;4.23;;
20283;SDS011;10301;50.832;4.080;2023-03-11T01:40:58;15.33;;;4.67;;
20283;SDS011;10301;50.832;4.080;2023-03-11T01:48:40;12.13;;;4.63;;
20283;SDS011;10301;50.832;4.080;2023-03-11T01:51:14;13.30;;;4.40;;
20283;SDS011;10301;50.832;4.080;2023-03-11T01:53:46;14.33;;;4.43;;
20283;SDS011;10301;50.832;4.080;2023-03-11T01:56:12;9.20;;;3.90;;
20283;SDS011;10301;50.832;4.080;2023-03-11T01:58:38;11.67;;;4.17;;
20283;SDS011;10301;50.832;4.080;2023-03-11T02:01:09;10.67;;;3.87;;
20283;SDS011;10301;50.832;4.080;2023-03-11T02:03:37;12.97;;;4.67;;
20283;SDS011;10301;50.832;4.080;2023-03-11T02:06:11;11.80;;;3.93;;
20283;SDS011;10301;50.832;4.080;2023-03-11T02:08:40;11.90;;;4.20;;
20283;SDS011;10301;50.832;4.080;2023-03-11T02:11:07;11.67;;;3.70;;
20283;SDS011;10301;50.832;4.080;2023-03-11T02:13:35;10.40;;;4.03;;
20283;SDS011;10301;50.832;4.080;2023-03-11T02:16:03;11.27;;;4.07;;
20283;SDS011;10301;50.832;4.080;2023-03-11T02:18:29;13.23;;;4.40;;
20283;SDS011;10301;50.832;4.080;2023-03-11T02:26:24;9.60;;;3.60;;
20283;SDS011;10301;50.832;4.080;2023-03-11T02:29:03;15.97;;;4.70;;
20283;SDS011;10301;50.832;4.080;2023-03-11T02:31:31;30.67;;;12.67;;
20283;SDS011;10301;50.832;4.080;2023-03-11T02:34:00;33.23;;;14.57;;
20283;SDS011;10301;50.832;4.080;2023-03-11T02:38:59;24.50;;;8.60;;
20283;SDS011;10301;50.832;4.080;2023-03-11T02:41:25;19.50;;;7.50;;
20283;SDS011;10301;50.832;4.080;2023-03-11T02:43:51;16.53;;;5.90;;
20283;SDS011;10301;50.832;4.080;2023-03-11T02:46:18;10.20;;;4.30;;
20283;SDS011;10301;50.832;4.080;2023-03-11T02:48:44;11.80;;;4.50;;
20283;SDS011;10301;50.832;4.080;2023-03-11T02:51:11;14.00;;;4.07;;
20283;SDS011;10301;50.832;4.080;2023-03-11T02:53:42;11.83;;;4.17;;
20283;SDS011;10301;50.832;4.080;2023-03-11T02:56:11;12.57;;;4.20;;
20283;SDS011;10301;50.832;4.080;2023-03-11T02:58:37;11.83;;;4.10;;
20283;SDS011;10301;50.832;4.080;2023-03-11T03:01:03;9.70;;;3.90;;
20283;SDS011;10301;50.832;4.080;2023-03-11T03:03:28;9.97;;;4.00;;
20283;SDS011;10301;50.832;4.080;2023-03-11T03:05:54;15.90;;;4.00;;
20283;SDS011;10301;50.832;4.080;2023-03-11T03:08:20;9.83;;;3.70;;
20283;SDS011;10301;50.832;4.080;2023-03-11T03:10:45;11.13;;;4.20;;
20283;SDS011;10301;50.832;4.080;2023-03-11T03:13:11;8.33;;;3.90;;
20283;SDS011;10301;50.832;4.080;2023-03-11T03:15:37;9.20;;;3.70;;
20283;SDS011;10301;50.832;4.080;2023-03-11T03:18:03;9.87;;;3.60;;
20283;SDS011;10301;50.832;4.080;2023-03-11T03:20:28;13.63;;;3.60;;
20283;SDS011;10301;50.832;4.080;2023-03-11T03:22:54;12.90;;;3.80;;
20283;SDS011;10301;50.832;4.080;2023-03-11T03:25:20;12.20;;;4.30;;
20283;SDS011;10301;50.832;4.080;2023-03-11T03:27:46;11.43;;;3.50;;
20283;SDS011;10301;50.832;4.080;2023-03-11T03:30:13;12.80;;;3.90;;
20283;SDS011;10301;50.832;4.080;2023-03-11T03:32:39;8.27;;;3.23;;
20283;SDS011;10301;50.832;4.080;2023-03-11T03:35:05;9.93;;;3.83;;
20283;SDS011;10301;50.832;4.080;2023-03-11T03:37:32;10.20;;;3.93;;
20283;SDS011;10301;50.832;4.080;2023-03-11T03:39:59;10.57;;;3.90;;
20283;SDS011;10301;50.832;4.080;2023-03-11T03:42:26;14.90;;;4.20;;
20283;SDS011;10301;50.832;4.080;2023-03-11T03:44:52;10.33;;;3.23;;
20283;SDS011;10301;50.832;4.080;2023-03-11T03:47:18;11.07;;;3.53;;
20283;SDS011;10301;50.832;4.080;2023-03-11T03:49:43;12.00;;;3.27;;
20283;SDS011;10301;50.832;4.080;2023-03-11T03:52:09;9.43;;;3.57;;
20283;SDS011;10301;50.832;4.080;2023-03-11T03:54:35;10.37;;;3.20;;
20283;SDS011;10301;50.832;4.080;2023-03-11T03:57:01;10.27;;;3.50;;
20283;SDS011;10301;50.832;4.080;2023-03-11T03:59:28;14.07;;;3.80;;
20283;SDS011;10301;50.832;4.080;2023-03-11T04:01:54;11.23;;;3.87;;
20283;SDS011;10301;50.832;4.080;2023-03-11T04:04:19;7.23;;;3.17;;
20283;SDS011;10301;50.832;4.080;2023-03-11T04:06:45;13.53;;;3.20;;
20283;SDS011;10301;50.832;4.080;2023-03-11T04:09:11;13.07;;;3.90;;
20283;SDS011;10301;50.832;4.080;2023-03-11T04:11:37;12.83;;;3.70;;
20283;SDS011;10301;50.832;4.080;2023-03-11T04:14:03;9.93;;;3.60;;
20283;SDS011;10301;50.832;4.080;2023-03-11T04:16:29;9.30;;;3.70;;
20283;SDS011;10301;50.832;4.080;2023-03-11T04:18:55;9.27;;;3.33;;
20283;SDS011;10301;50.832;4.080;2023-03-11T04:21:21;11.53;;;3.83;;
20283;SDS011;10301;50.832;4.080;2023-03-11T04:23:46;8.90;;;3.50;;
20283;SDS011;10301;50.832;4.080;2023-03-11T04:26:12;10.60;;;3.50;;
20283;SDS011;10301;50.832;4.080;2023-03-11T04:28:38;15.00;;;3.40;;
20283;SDS011;10301;50.832;4.080;2023-03-11T04:31:04;8.67;;;3.13;;
20283;SDS011;10301;50.832;4.080;2023-03-11T04:33:29;12.30;;;4.00;;
20283;SDS011;10301;50.832;4.080;2023-03-11T04:35:56;8.23;;;3.40;;
20283;SDS011;10301;50.832;4.080;2023-03-11T04:38:22;7.50;;;3.47;;
20283;SDS011;10301;50.832;4.080;2023-03-11T04:40:47;11.57;;;4.00;;
20283;SDS011;10301;50.832;4.080;2023-03-11T04:43:13;12.20;;;3.67;;
20283;SDS011;10301;50.832;4.080;2023-03-11T04:45:39;10.13;;;3.70;;
20283;SDS011;10301;50.832;4.080;2023-03-11T04:48:05;10.37;;;3.67;;
20283;SDS011;10301;50.832;4.080;2023-03-11T04:50:31;9.67;;;3.40;;
20283;SDS011;10301;50.832;4.080;2023-03-11T04:52:57;14.07;;;4.03;;
20283;SDS011;10301;50.832;4.080;2023-03-11T04:55:22;11.60;;;3.90;;
20283;SDS011;10301;50.832;4.080;2023-03-11T04:57:48;11.60;;;4.77;;
20283;SDS011;10301;50.832;4.080;2023-03-11T05:00:14;14.03;;;4.20;;
20283;SDS011;10301;50.832;4.080;2023-03-11T05:02:40;8.33;;;3.50;;
20283;SDS011;10301;50.832;4.080;2023-03-11T05:05:07;8.33;;;3.80;;
20283;SDS011;10301;50.832;4.080;2023-03-11T05:07:34;8.90;;;3.70;;
20283;SDS011;10301;50.832;4.080;2023-03-11T05:10:00;12.53;;;3.60;;
20283;SDS011;10301;50.832;4.080;2023-03-11T05:12:26;11.50;;;3.40;;
20283;SDS011;10301;50.832;4.080;2023-03-11T05:14:52;11.50;;;4.23;;
20283;SDS011;10301;50.832;4.080;2023-03-11T05:17:17;13.47;;;4.37;;
20283;SDS011;10301;50.832;4.080;2023-03-11T05:19:43;12.77;;;5.70;;
20283;SDS011;10301;50.832;4.080;2023-03-11T05:22:10;12.80;;;4.73;;
20283;SDS011;10301;50.832;4.080;2023-03-11T05:24:36;15.03;;;5.20;;
20283;SDS011;10301;50.832;4.080;2023-03-11T05:27:02;10.60;;;4.27;;
20283;SDS011;10301;50.832;4.080;2023-03-11T05:29:28;15.33;;;4.80;;
20283;SDS011;10301;50.832;4.080;2023-03-11T05:31:54;13.77;;;4.80;;
20283;SDS011;10301;50.832;4.080;2023-03-11T05:34:20;12.67;;;4.97;;
20283;SDS011;10301;50.832;4.080;2023-03-11T05:36:46;13.87;;;5.10;;
20283;SDS011;10301;50.832;4.080;2023-03-11T05:39:11;11.97;;;4.67;;
20283;SDS011;10301;50.832;4.080;2023-03-11T05:41:37;11.57;;;5.47;;
20283;SDS011;10301;50.832;4.080;2023-03-11T05:44:03;15.47;;;4.73;;
20283;SDS011;10301;50.832;4.080;2023-03-11T05:46:29;12.10;;;4.40;;
20283;SDS011;10301;50.832;4.080;2023-03-11T05:48:55;11.17;;;5.27;;
20283;SDS011;10301;50.832;4.080;2023-03-11T05:51:20;13.10;;;5.60;;
20283;SDS011;10301;50.832;4.080;2023-03-11T05:53:47;15.80;;;5.10;;
20283;SDS011;10301;50.832;4.080;2023-03-11T05:56:17;12.20;;;4.40;;
20283;SDS011;10301;50.832;4.080;2023-03-11T05:58:45;15.67;;;4.83;;
20283;SDS011;10301;50.832;4.080;2023-03-11T06:01:12;12.17;;;4.63;;
20283;SDS011;10301;50.832;4.080;2023-03-11T06:03:39;12.47;;;4.70;;
20283;SDS011;10301;50.832;4.080;2023-03-11T06:06:06;9.80;;;4.80;;
20283;SDS011;10301;50.832;4.080;2023-03-11T06:08:33;15.93;;;5.80;;
20283;SDS011;10301;50.832;4.080;2023-03-11T06:11:03;10.97;;;4.70;;
20283;SDS011;10301;50.832;4.080;2023-03-11T06:13:30;15.23;;;6.07;;
20283;SDS011;10301;50.832;4.080;2023-03-11T06:15:56;18.80;;;9.60;;
20283;SDS011;10301;50.832;4.080;2023-03-11T06:18:22;22.10;;;9.63;;
20283;SDS011;10301;50.832;4.080;2023-03-11T06:20:50;17.37;;;9.73;;
20283;SDS011;10301;50.832;4.080;2023-03-11T06:23:22;13.03;;;6.23;;
20283;SDS011;10301;50.832;4.080;2023-03-11T06:26:21;17.87;;;6.80;;
20283;SDS011;10301;50.832;4.080;2023-03-11T06:28:41;12.43;;;5.93;;
20283;SDS011;10301;50.832;4.080;2023-03-11T06:31:12;13.83;;;5.70;;
20283;SDS011;10301;50.832;4.080;2023-03-11T06:33:40;13.93;;;5.03;;
20283;SDS011;10301;50.832;4.080;2023-03-11T06:36:06;12.13;;;5.23;;
20283;SDS011;10301;50.832;4.080;2023-03-11T06:38:32;13.57;;;5.33;;
20283;SDS011;10301;50.832;4.080;2023-03-11T06:40:59;11.40;;;6.03;;
20283;SDS011;10301;50.832;4.080;2023-03-11T06:43:25;11.90;;;5.77;;
20283;SDS011;10301;50.832;4.080;2023-03-11T06:45:51;13.17;;;6.07;;
20283;SDS011;10301;50.832;4.080;2023-03-11T06:48:17;12.00;;;6.20;;
20283;SDS011;10301;50.832;4.080;2023-03-11T06:50:42;14.03;;;6.33;;
20283;SDS011;10301;50.832;4.080;2023-03-11T06:53:08;16.43;;;7.43;;
20283;SDS011;10301;50.832;4.080;2023-03-11T06:55:35;17.03;;;7.60;;
20283;SDS011;10301;50.832;4.080;2023-03-11T06:58:00;16.63;;;7.27;;
20283;SDS011;10301;50.832;4.080;2023-03-11T07:00:26;14.80;;;6.13;;
20283;SDS011;10301;50.832;4.080;2023-03-11T07:02:52;15.87;;;6.93;;
20283;SDS011;10301;50.832;4.080;2023-03-11T07:05:18;16.33;;;9.43;;
20283;SDS011;10301;50.832;4.080;2023-03-11T07:07:44;24.43;;;10.37;;
20283;SDS011;10301;50.832;4.080;2023-03-11T07:10:10;21.97;;;10.67;;
20283;SDS011;10301;50.832;4.080;2023-03-11T07:12:36;20.10;;;9.90;;
20283;SDS011;10301;50.832;4.080;2023-03-11T07:15:02;17.67;;;9.93;;
20283;SDS011;10301;50.832;4.080;2023-03-11T07:17:28;16.40;;;7.80;;
20283;SDS011;10301;50.832;4.080;2023-03-11T07:19:53;17.03;;;7.97;;
20283;SDS011;10301;50.832;4.080;2023-03-11T07:22:19;16.13;;;6.40;;
20283;SDS011;10301;50.832;4.080;2023-03-11T07:24:46;16.50;;;6.43;;
20283;SDS011;10301;50.832;4.080;2023-03-11T07:27:12;14.53;;;6.03;;
20283;SDS011;10301;50.832;4.080;2023-03-11T07:29:38;12.53;;;6.00;;
20283;SDS011;10301;50.832;4.080;2023-03-11T07:32:05;15.47;;;6.93;;
20283;SDS011;10301;50.832;4.080;2023-03-11T07:34:32;12.33;;;6.73;;
20283;SDS011;10301;50.832;4.080;2023-03-11T07:36:57;13.47;;;7.20;;
20283;SDS011;10301;50.832;4.080;2023-03-11T07:39:23;18.93;;;7.93;;
20283;SDS011;10301;50.832;4.080;2023-03-11T07:41:49;16.53;;;7.43;;
20283;SDS011;10301;50.832;4.080;2023-03-11T07:44:14;13.30;;;7.43;;
20283;SDS011;10301;50.832;4.080;2023-03-11T07:46:41;26.20;;;13.47;;
20283;SDS011;10301;50.832;4.080;2023-03-11T07:49:07;26.50;;;14.13;;
20283;SDS011;10301;50.832;4.080;2023-03-11T07:51:34;25.70;;;12.57;;
20283;SDS011;10301;50.832;4.080;2023-03-11T07:54:01;22.63;;;10.57;;
20283;SDS011;10301;50.832;4.080;2023-03-11T07:56:28;18.90;;;8.07;;
20283;SDS011;10301;50.832;4.080;2023-03-11T07:58:56;13.20;;;7.50;;
20283;SDS011;10301;50.832;4.080;2023-03-11T08:01:24;15.23;;;7.43;;
20283;SDS011;10301;50.832;4.080;2023-03-11T08:03:52;18.07;;;7.17;;
20283;SDS011;10301;50.832;4.080;2023-03-11T08:06:26;13.23;;;7.43;;
20283;SDS011;10301;50.832;4.080;2023-03-11T08:08:55;10.63;;;6.40;;
20283;SDS011;10301;50.832;4.080;2023-03-11T08:11:25;12.97;;;7.50;;
20283;SDS011;10301;50.832;4.080;2023-03-11T08:13:51;14.50;;;8.53;;
20283;SDS011;10301;50.832;4.080;2023-03-11T08:16:18;17.87;;;8.03;;
20283;SDS011;10301;50.832;4.080;2023-03-11T08:18:46;19.93;;;8.30;;
20283;SDS011;10301;50.832;4.080;2023-03-11T08:21:16;17.80;;;9.90;;
20283;SDS011;10301;50.832;4.080;2023-03-11T08:23:44;20.27;;;8.43;;
20283;SDS011;10301;50.832;4.080;2023-03-11T08:26:11;17.20;;;8.47;;
20283;SDS011;10301;50.832;4.080;2023-03-11T08:28:38;15.23;;;7.47;;
20283;SDS011;10301;50.832;4.080;2023-03-11T08:31:17;19.20;;;7.33;;
20283;SDS011;10301;50.832;4.080;2023-03-11T08:33:45;13.77;;;6.73;;
20283;SDS011;10301;50.832;4.080;2023-03-11T08:36:14;16.57;;;8.30;;
20283;SDS011;10301;50.832;4.080;2023-03-11T08:38:40;17.43;;;9.17;;
20283;SDS011;10301;50.832;4.080;2023-03-11T08:41:06;17.40;;;8.87;;
20283;SDS011;10301;50.832;4.080;2023-03-11T08:43:32;12.57;;;7.33;;
20283;SDS011;10301;50.832;4.080;2023-03-11T08:46:01;17.13;;;7.10;;
20283;SDS011;10301;50.832;4.080;2023-03-11T08:48:30;14.37;;;6.90;;
20283;SDS011;10301;50.832;4.080;2023-03-11T08:50:56;17.30;;;6.30;;
20283;SDS011;10301;50.832;4.080;2023-03-11T08:53:22;15.90;;;6.20;;
20283;SDS011;10301;50.832;4.080;2023-03-11T08:55:49;13.77;;;5.77;;
20283;SDS011;10301;50.832;4.080;2023-03-11T08:58:15;14.77;;;5.83;;
20283;SDS011;10301;50.832;4.080;2023-03-11T09:00:41;21.33;;;6.87;;
20283;SDS011;10301;50.832;4.080;2023-03-11T09:03:07;19.10;;;5.70;;
20283;SDS011;10301;50.832;4.080;2023-03-11T09:05:33;10.43;;;4.97;;
20283;SDS011;10301;50.832;4.080;2023-03-11T09:07:58;12.03;;;5.10;;
20283;SDS011;10301;50.832;4.080;2023-03-11T09:10:24;16.67;;;5.03;;
20283;SDS011;10301;50.832;4.080;2023-03-11T09:12:49;14.93;;;5.33;;
20283;SDS011;10301;50.832;4.080;2023-03-11T09:15:15;17.33;;;5.00;;
20283;SDS011;10301;50.832;4.080;2023-03-11T09:17:41;13.43;;;4.80;;
20283;SDS011;10301;50.832;4.080;2023-03-11T09:20:07;14.33;;;5.23;;
20283;SDS011;10301;50.832;4.080;2023-03-11T09:22:33;18.33;;;5.40;;
20283;SDS011;10301;50.832;4.080;2023-03-11T09:24:58;12.00;;;4.93;;
20283;SDS011;10301;50.832;4.080;2023-03-11T09:27:24;11.70;;;5.33;;
20283;SDS011;10301;50.832;4.080;2023-03-11T09:29:50;13.43;;;5.43;;
20283;SDS011;10301;50.832;4.080;2023-03-11T09:32:15;11.50;;;4.73;;
20283;SDS011;10301;50.832;4.080;2023-03-11T09:34:41;15.30;;;4.90;;
20283;SDS011;10301;50.832;4.080;2023-03-11T09:37:07;11.27;;;3.87;;
20283;SDS011;10301;50.832;4.080;2023-03-11T09:39:32;11.40;;;4.50;;
20283;SDS011;10301;50.832;4.080;2023-03-11T09:42:02;12.80;;;3.97;;
20283;SDS011;10301;50.832;4.080;2023-03-11T09:47:18;12.63;;;4.20;;
20283;SDS011;10301;50.832;4.080;2023-03-11T09:50:13;9.87;;;3.13;;
20283;SDS011;10301;50.832;4.080;2023-03-11T09:55:20;10.37;;;2.23;;
20283;SDS011;10301;50.832;4.080;2023-03-11T09:57:49;6.90;;;1.97;;
20283;SDS011;10301;50.832;4.080;2023-03-11T10:00:17;7.90;;;2.30;;
20283;SDS011;10301;50.832;4.080;2023-03-11T10:02:47;9.50;;;5.07;;
20283;SDS011;10301;50.832;4.080;2023-03-11T10:05:24;4.93;;;1.97;;
20283;SDS011;10301;50.832;4.080;2023-03-11T10:07:54;10.33;;;1.80;;
20283;SDS011;10301;50.832;4.080;2023-03-11T10:10:42;6.73;;;1.50;;
20283;SDS011;10301;50.832;4.080;2023-03-11T10:13:14;4.77;;;1.50;;
20283;SDS011;10301;50.832;4.080;2023-03-11T10:27:02;14.37;;;2.00;;
20283;SDS011;10301;50.832;4.080;2023-03-11T10:29:59;15.97;;;3.47;;
20283;SDS011;10301;50.832;4.080;2023-03-11T10:32:36;13.33;;;4.10;;
20283;SDS011;10301;50.832;4.080;2023-03-11T10:35:17;13.33;;;2.97;;
20283;SDS011;10301;50.832;4.080;2023-03-11T10:37:52;9.50;;;1.93;;
20283;SDS011;10301;50.832;4.080;2023-03-11T10:40:29;6.13;;;1.80;;
20283;SDS011;10301;50.832;4.080;2023-03-11T10:42:58;8.77;;;1.90;;
20283;SDS011;10301;50.832;4.080;2023-03-11T10:45:37;13.37;;;2.03;;
20283;SDS011;10301;50.832;4.080;2023-03-11T10:48:12;13.43;;;1.97;;
20283;SDS011;10301;50.832;4.080;2023-03-11T10:53:15;6.57;;;1.70;;
20283;SDS011;10301;50.832;4.080;2023-03-11T10:55:44;8.13;;;2.53;;
20283;SDS011;10301;50.832;4.080;2023-03-11T10:58:16;6.80;;;1.60;;
20283;SDS011;10301;50.832;4.080;2023-03-11T11:00:45;9.77;;;1.87;;
20283;SDS011;10301;50.832;4.080;2023-03-11T11:03:23;7.13;;;1.57;;
20283;SDS011;10301;50.832;4.080;2023-03-11T11:06:09;13.73;;;2.03;;
20283;SDS011;10301;50.832;4.080;2023-03-11T11:08:46;11.93;;;2.00;;
20283;SDS011;10301;50.832;4.080;2023-03-11T11:11:22;9.50;;;2.43;;
20283;SDS011;10301;50.832;4.080;2023-03-11T11:13:57;9.23;;;2.13;;
20283;SDS011;10301;50.832;4.080;2023-03-11T11:16:25;4.70;;;1.77;;
20283;SDS011;10301;50.832;4.080;2023-03-11T11:19:08;15.17;;;1.83;;
20283;SDS011;10301;50.832;4.080;2023-03-11T11:21:39;8.73;;;1.90;;
20283;SDS011;10301;50.832;4.080;2023-03-11T11:24:28;10.63;;;2.50;;
20283;SDS011;10301;50.832;4.080;2023-03-11T11:29:47;8.70;;;2.13;;
20283;SDS011;10301;50.832;4.080;2023-03-11T11:32:34;15.07;;;2.20;;
20283;SDS011;10301;50.832;4.080;2023-03-11T11:35:02;6.07;;;1.73;;
20283;SDS011;10301;50.832;4.080;2023-03-11T11:37:35;6.37;;;1.47;;
20283;SDS011;10301;50.832;4.080;2023-03-11T11:42:36;18.73;;;2.00;;
20283;SDS011;10301;50.832;4.080;2023-03-11T11:47:54;9.63;;;1.93;;
20283;SDS011;10301;50.832;4.080;2023-03-11T11:53:09;9.07;;;1.57;;
20283;SDS011;10301;50.832;4.080;2023-03-11T11:55:46;8.83;;;1.37;;
20283;SDS011;10301;50.832;4.080;2023-03-11T11:58:14;12.90;;;2.10;;
20283;SDS011;10301;50.832;4.080;2023-03-11T12:00:45;11.67;;;1.80;;
20283;SDS011;10301;50.832;4.080;2023-03-11T12:06:19;10.40;;;1.83;;
20283;SDS011;10301;50.832;4.080;2023-03-11T12:09:02;6.70;;;1.87;;
20283;SDS011;10301;50.832;4.080;2023-03-11T12:18:03;9.00;;;2.00;;
20283;SDS011;10301;50.832;4.080;2023-03-11T12:21:18;12.10;;;1.80;;
20283;SDS011;10301;50.832;4.080;2023-03-11T12:26:14;7.03;;;2.17;;
20283;SDS011;10301;50.832;4.080;2023-03-11T12:28:49;10.73;;;2.17;;
20283;SDS011;10301;50.832;4.080;2023-03-11T12:31:19;11.03;;;2.67;;
20283;SDS011;10301;50.832;4.080;2023-03-11T12:33:47;13.40;;;2.20;;
20283;SDS011;10301;50.832;4.080;2023-03-11T12:36:24;6.37;;;1.50;;
20283;SDS011;10301;50.832;4.080;2023-03-11T12:39:02;9.47;;;2.00;;
20283;SDS011;10301;50.832;4.080;2023-03-11T12:41:43;11.30;;;1.80;;
20283;SDS011;10301;50.832;4.080;2023-03-11T12:54:37;10.03;;;2.43;;
20283;SDS011;10301;50.832;4.080;2023-03-11T13:08:53;7.17;;;2.30;;
20283;SDS011;10301;50.832;4.080;2023-03-11T13:16:47;5.67;;;1.57;;
20283;SDS011;10301;50.832;4.080;2023-03-11T13:21:52;8.97;;;1.80;;
20283;SDS011;10301;50.832;4.080;2023-03-11T13:32:24;10.90;;;1.93;;
20283;SDS011;10301;50.832;4.080;2023-03-11T13:40:45;8.70;;;1.63;;
20283;SDS011;10301;50.832;4.080;2023-03-11T13:43:13;8.10;;;1.80;;
20283;SDS011;10301;50.832;4.080;2023-03-11T13:45:52;6.77;;;1.73;;
20283;SDS011;10301;50.832;4.080;2023-03-11T13:48:44;5.93;;;1.70;;
20283;SDS011;10301;50.832;4.080;2023-03-11T13:53:48;8.30;;;2.17;;
20283;SDS011;10301;50.832;4.080;2023-03-11T13:56:42;9.13;;;2.60;;
20283;SDS011;10301;50.832;4.080;2023-03-11T14:01:49;10.63;;;2.50;;
20283;SDS011;10301;50.832;4.080;2023-03-11T14:04:54;6.17;;;2.00;;
20283;SDS011;10301;50.832;4.080;2023-03-11T14:07:35;10.27;;;2.37;;
20283;SDS011;10301;50.832;4.080;2023-03-11T14:12:42;10.23;;;2.40;;
20283;SDS011;10301;50.832;4.080;2023-03-11T14:15:08;6.90;;;1.70;;
20283;SDS011;10301;50.832;4.080;2023-03-11T14:17:41;7.67;;;2.03;;
20283;SDS011;10301;50.832;4.080;2023-03-11T14:20:14;9.70;;;1.73;;
20283;SDS011;10301;50.832;4.080;2023-03-11T14:22:45;8.60;;;1.93;;
20283;SDS011;10301;50.832;4.080;2023-03-11T14:25:21;8.67;;;2.10;;
20283;SDS011;10301;50.832;4.080;2023-03-11T14:27:58;10.43;;;2.23;;
20283;SDS011;10301;50.832;4.080;2023-03-11T14:30:30;13.13;;;2.83;;
20283;SDS011;10301;50.832;4.080;2023-03-11T14:33:17;9.60;;;2.43;;
20283;SDS011;10301;50.832;4.080;2023-03-11T14:35:52;6.27;;;1.90;;
20283;SDS011;10301;50.832;4.080;2023-03-11T14:38:27;10.00;;;1.70;;
20283;SDS011;10301;50.832;4.080;2023-03-11T14:40:58;7.37;;;1.70;;
20283;SDS011;10301;50.832;4.080;2023-03-11T14:43:32;16.83;;;9.63;;
20283;SDS011;10301;50.832;4.080;2023-03-11T14:46:02;7.47;;;2.17;;
20283;SDS011;10301;50.832;4.080;2023-03-11T14:50:59;13.07;;;2.10;;
20283;SDS011;10301;50.832;4.080;2023-03-11T14:53:37;6.43;;;1.80;;
20283;SDS011;10301;50.832;4.080;2023-03-11T14:56:12;7.53;;;1.80;;
20283;SDS011;10301;50.832;4.080;2023-03-11T14:58:43;6.03;;;1.70;;
20283;SDS011;10301;50.832;4.080;2023-03-11T15:01:18;7.10;;;1.80;;
20283;SDS011;10301;50.832;4.080;2023-03-11T15:06:26;5.83;;;1.50;;
20283;SDS011;10301;50.832;4.080;2023-03-11T15:09:10;7.27;;;1.87;;
20283;SDS011;10301;50.832;4.080;2023-03-11T15:19:54;9.80;;;2.10;;
20283;SDS011;10301;50.832;4.080;2023-03-11T15:24:51;7.93;;;2.10;;
20283;SDS011;10301;50.832;4.080;2023-03-11T15:27:32;6.83;;;1.97;;
20283;SDS011;10301;50.832;4.080;2023-03-11T15:30:03;5.20;;;1.90;;
20283;SDS011;10301;50.832;4.080;2023-03-11T15:32:42;6.43;;;1.70;;
20283;SDS011;10301;50.832;4.080;2023-03-11T15:37:35;5.50;;;1.73;;
20283;SDS011;10301;50.832;4.080;2023-03-11T15:40:34;10.13;;;1.93;;
20283;SDS011;10301;50.832;4.080;2023-03-11T15:45:38;9.10;;;2.07;;
20283;SDS011;10301;50.832;4.080;2023-03-11T15:48:04;13.33;;;2.50;;
20283;SDS011;10301;50.832;4.080;2023-03-11T15:50:29;9.37;;;2.17;;
20283;SDS011;10301;50.832;4.080;2023-03-11T15:52:56;10.23;;;2.10;;
20283;SDS011;10301;50.832;4.080;2023-03-11T15:55:23;10.43;;;3.60;;
20283;SDS011;10301;50.832;4.080;2023-03-11T15:57:51;9.17;;;2.70;;
20283;SDS011;10301;50.832;4.080;2023-03-11T16:00:30;9.93;;;2.03;;
20283;SDS011;10301;50.832;4.080;2023-03-11T16:02:57;8.63;;;1.90;;
20283;SDS011;10301;50.832;4.080;2023-03-11T16:05:23;9.20;;;2.93;;
20283;SDS011;10301;50.832;4.080;2023-03-11T16:07:49;6.73;;;2.10;;
20283;SDS011;10301;50.832;4.080;2023-03-11T16:10:16;7.73;;;1.97;;
20283;SDS011;10301;50.832;4.080;2023-03-11T16:12:43;8.97;;;2.30;;
20283;SDS011;10301;50.832;4.080;2023-03-11T16:17:48;14.73;;;2.20;;
20283;SDS011;10301;50.832;4.080;2023-03-11T16:20:16;8.93;;;2.10;;
20283;SDS011;10301;50.832;4.080;2023-03-11T16:22:43;8.63;;;2.40;;
20283;SDS011;10301;50.832;4.080;2023-03-11T16:27:55;8.77;;;2.80;;
20283;SDS011;10301;50.832;4.080;2023-03-11T16:30:21;9.50;;;3.00;;
20283;SDS011;10301;50.832;4.080;2023-03-11T16:32:48;11.47;;;1.97;;
20283;SDS011;10301;50.832;4.080;2023-03-11T16:35:14;8.50;;;1.97;;
20283;SDS011;10301;50.832;4.080;2023-03-11T16:37:40;8.60;;;2.27;;
20283;SDS011;10301;50.832;4.080;2023-03-11T16:40:18;7.87;;;2.37;;
20283;SDS011;10301;50.832;4.080;2023-03-11T16:42:45;12.17;;;2.27;;
20283;SDS011;10301;50.832;4.080;2023-03-11T16:45:12;9.43;;;2.10;;
20283;SDS011;10301;50.832;4.080;2023-03-11T16:47:38;9.93;;;2.30;;
20283;SDS011;10301;50.832;4.080;2023-03-11T16:50:05;8.53;;;2.20;;
20283;SDS011;10301;50.832;4.080;2023-03-11T16:52:31;8.20;;;1.90;;
20283;SDS011;10301;50.832;4.080;2023-03-11T16:54:56;8.17;;;1.97;;
20283;SDS011;10301;50.832;4.080;2023-03-11T16:57:22;9.50;;;2.10;;
20283;SDS011;10301;50.832;4.080;2023-03-11T16:59:48;9.43;;;2.13;;
20283;SDS011;10301;50.832;4.080;2023-03-11T17:02:14;8.03;;;2.37;;